Time;durP1;ratioP1;P1;durP2;ratioP2;P2;SDS_P1;SDS_P2;PMS_P1;PMS_P2;Temp;Humidity;BMP_temperature;BMP_pressure;BME280_temperature;BME280_humidity;BME280_pressure;Samples;Min_cycle;Max_cycle;Signal;HPM_P1;HPM_P2
2023/03/27 00:00:43;;;;;;;12.27;3.47;;;;;;;;;;7388037;19;20007;-73
2023/03/27 00:03:11;;;;;;;11.02;3.25;;;;;;;;;;7386916;19;20012;-73
2023/03/27 00:05:36;;;;;;;10.15;2.92;;;;;;;;;;7389077;19;19995;-73
2023/03/27 00:08:02;;;;;;;18.30;3.13;;;;;;;;;;7387144;19;20017;-73
2023/03/27 00:10:28;;;;;;;11.90;2.95;;;;;;;;;;7385760;19;20512;-73
2023/03/27 00:12:54;;;;;;;16.40;3.10;;;;;;;;;;7383718;19;20058;-72
2023/03/27 00:15:20;;;;;;;10.75;3.30;;;;;;;;;;7388114;19;19995;-73
2023/03/27 00:17:48;;;;;;;6.53;2.20;;;;;;;;;;7386456;19;20531;-73
2023/03/27 00:20:15;;;;;;;13.15;2.47;;;;;;;;;;7387135;19;20017;-73
2023/03/27 00:22:41;;;;;;;13.35;3.10;;;;;;;;;;7384542;19;19991;-73
2023/03/27 00:25:08;;;;;;;8.30;2.33;;;;;;;;;;7387477;19;20086;-73
2023/03/27 00:27:34;;;;;;;11.18;2.38;;;;;;;;;;7386000;19;20192;-73
2023/03/27 00:30:00;;;;;;;10.52;2.03;;;;;;;;;;7391957;19;19995;-73
2023/03/27 00:32:26;;;;;;;17.92;2.58;;;;;;;;;;7392328;19;20019;-74
2023/03/27 00:34:51;;;;;;;7.22;2.30;;;;;;;;;;7394528;19;19998;-74
2023/03/27 00:37:16;;;;;;;7.28;1.75;;;;;;;;;;7392839;19;19991;-74
2023/03/27 00:39:42;;;;;;;14.07;2.50;;;;;;;;;;7393513;19;20046;-73
2023/03/27 00:42:12;;;;;;;16.63;2.00;;;;;;;;;;7390860;19;20025;-73
2023/03/27 00:44:38;;;;;;;6.57;1.95;;;;;;;;;;7392963;19;20074;-73
2023/03/27 00:47:03;;;;;;;8.57;2.08;;;;;;;;;;7393168;19;19999;-73
2023/03/27 00:49:33;;;;;;;4.82;1.92;;;;;;;;;;7393876;19;19999;-73
2023/03/27 00:52:01;;;;;;;7.28;2.28;;;;;;;;;;7396675;19;20003;-73
2023/03/27 00:54:30;;;;;;;10.70;1.58;;;;;;;;;;7392152;19;19998;-74
2023/03/27 00:57:00;;;;;;;7.10;1.80;;;;;;;;;;7394014;19;20752;-72
2023/03/27 00:59:29;;;;;;;5.75;1.65;;;;;;;;;;7393869;19;20003;-73
2023/03/27 01:01:56;;;;;;;6.88;2.35;;;;;;;;;;7391770;19;20005;-73
2023/03/27 01:04:22;;;;;;;7.80;2.10;;;;;;;;;;7393400;19;19999;-73
2023/03/27 01:06:51;;;;;;;5.80;1.52;;;;;;;;;;7394922;19;20087;-73
2023/03/27 01:09:17;;;;;;;13.43;2.10;;;;;;;;;;7392091;19;20019;-73
2023/03/27 01:12:04;;;;;;;5.70;2.17;;;;;;;;;;7391601;19;20015;-73
2023/03/27 01:14:48;;;;;;;3.55;1.50;;;;;;;;;;7391799;19;20545;-73
2023/03/27 01:17:51;;;;;;;8.35;2.05;;;;;;;;;;7393329;19;20003;-73
2023/03/27 01:20:43;;;;;;;7.07;1.75;;;;;;;;;;7390802;19;20078;-72
2023/03/27 01:23:35;;;;;;;4.78;1.50;;;;;;;;;;7392886;19;19998;-73
2023/03/27 01:26:03;;;;;;;;;;;;;;;;;;7392961;19;20015;-73
2023/03/27 01:28:47;;;;;;;7.30;1.45;;;;;;;;;;7390108;19;19918;-72
2023/03/27 01:31:43;;;;;;;6.15;1.65;;;;;;;;;;7390016;19;20018;-74
2023/03/27 01:34:41;;;;;;;3.28;1.40;;;;;;;;;;7392575;19;19995;-75
2023/03/27 01:37:36;;;;;;;8.13;1.73;;;;;;;;;;7390899;19;19998;-73
2023/03/27 01:40:18;;;;;;;4.93;1.70;;;;;;;;;;7392377;19;20011;-72
2023/03/27 01:42:51;;;;;;;6.25;1.63;;;;;;;;;;7389871;19;20472;-74
2023/03/27 01:45:27;;;;;;;4.07;1.77;;;;;;;;;;7391097;19;20004;-73
2023/03/27 01:48:03;;;;;;;1.83;0.98;;;;;;;;;;7390825;19;20022;-72
2023/03/27 01:50:41;;;;;;;2.33;1.20;;;;;;;;;;7391466;19;20003;-72
2023/03/27 01:53:23;;;;;;;9.77;2.40;;;;;;;;;;7389587;19;20072;-72
2023/03/27 01:55:57;;;;;;;4.55;1.70;;;;;;;;;;7391708;19;19995;-74
2023/03/27 01:58:28;;;;;;;8.93;1.73;;;;;;;;;;7391831;19;20002;-74
2023/03/27 02:00:59;;;;;;;9.23;2.42;;;;;;;;;;7391599;19;20342;-73
2023/03/27 02:03:38;;;;;;;5.18;1.35;;;;;;;;;;7391622;19;19999;-75
2023/03/27 02:06:17;;;;;;;5.88;1.50;;;;;;;;;;7394305;19;20519;-73
2023/03/27 02:08:54;;;;;;;3.05;1.05;;;;;;;;;;7391728;19;20110;-72
2023/03/27 02:11:23;;;;;;;9.27;1.95;;;;;;;;;;7390466;19;19999;-73
2023/03/27 02:14:23;;;;;;;4.78;1.23;;;;;;;;;;7391256;19;20050;-73
2023/03/27 02:16:54;;;;;;;8.65;1.50;;;;;;;;;;7391002;19;19998;-74
2023/03/27 02:19:32;;;;;;;7.22;1.52;;;;;;;;;;7392955;19;20082;-73
2023/03/27 02:21:58;;;;;;;2.40;1.55;;;;;;;;;;7391948;19;19999;-73
2023/03/27 02:24:24;;;;;;;7.97;1.55;;;;;;;;;;7391420;19;20623;-73
2023/03/27 02:26:58;;;;;;;11.02;1.25;;;;;;;;;;7391845;19;20050;-73
2023/03/27 02:29:46;;;;;;;7.72;2.22;;;;;;;;;;7391665;19;19998;-73
2023/03/27 02:32:19;;;;;;;4.63;1.60;;;;;;;;;;7389610;19;20009;-73
2023/03/27 02:35:20;;;;;;;13.50;2.13;;;;;;;;;;7391026;19;20423;-74
2023/03/27 02:37:55;;;;;;;5.82;1.58;;;;;;;;;;7391687;19;20333;-74
2023/03/27 02:41:01;;;;;;;7.50;1.35;;;;;;;;;;7390517;19;20372;-74
2023/03/27 02:43:35;;;;;;;7.18;1.60;;;;;;;;;;7392803;19;20001;-74
2023/03/27 02:46:01;;;;;;;7.60;1.45;;;;;;;;;;7391395;19;20078;-73
2023/03/27 02:48:30;;;;;;;7.78;1.65;;;;;;;;;;7387823;19;20031;-73
2023/03/27 02:51:00;;;;;;;8.70;2.17;;;;;;;;;;7389190;19;19995;-74
2023/03/27 02:53:30;;;;;;;5.45;1.45;;;;;;;;;;7389514;19;20002;-74
2023/03/27 02:55:59;;;;;;;2.65;1.40;;;;;;;;;;7390596;19;20054;-72
2023/03/27 02:58:31;;;;;;;7.97;1.75;;;;;;;;;;7390122;19;19994;-73
2023/03/27 03:00:58;;;;;;;2.42;1.00;;;;;;;;;;7392476;19;19986;-72
2023/03/27 03:03:31;;;;;;;13.50;1.60;;;;;;;;;;7390597;19;20082;-72
2023/03/27 03:05:57;;;;;;;6.50;1.60;;;;;;;;;;7390319;19;20083;-73
2023/03/27 03:08:23;;;;;;;9.35;2.03;;;;;;;;;;7388984;19;20026;-74
2023/03/27 03:10:49;;;;;;;2.50;1.40;;;;;;;;;;7389477;19;20022;-74
2023/03/27 03:13:16;;;;;;;6.40;1.60;;;;;;;;;;7389720;19;19994;-73
2023/03/27 03:15:42;;;;;;;4.00;1.33;;;;;;;;;;7389922;19;19999;-73
2023/03/27 03:18:07;;;;;;;6.20;1.35;;;;;;;;;;7389579;19;20402;-73
2023/03/27 03:20:33;;;;;;;5.35;1.30;;;;;;;;;;7389336;19;20002;-74
2023/03/27 03:22:59;;;;;;;10.00;1.77;;;;;;;;;;7386388;19;20062;-73
2023/03/27 03:25:24;;;;;;;8.05;1.33;;;;;;;;;;7388713;19;20010;-74
2023/03/27 03:27:56;;;;;;;7.55;2.13;;;;;;;;;;7386878;19;19994;-73
2023/03/27 03:30:26;;;;;;;10.93;1.58;;;;;;;;;;7389773;19;19998;-73
2023/03/27 03:32:53;;;;;;;7.55;1.30;;;;;;;;;;7388959;19;19998;-73
2023/03/27 03:35:23;;;;;;;9.50;1.40;;;;;;;;;;7390114;19;19995;-73
2023/03/27 03:37:50;;;;;;;10.23;2.08;;;;;;;;;;7389883;19;19995;-73
2023/03/27 03:40:17;;;;;;;8.80;1.25;;;;;;;;;;7389085;19;20008;-73
2023/03/27 03:42:47;;;;;;;3.67;1.60;;;;;;;;;;7392134;19;20493;-73
2023/03/27 03:45:13;;;;;;;6.27;1.63;;;;;;;;;;7391087;19;20002;-73
2023/03/27 03:47:38;;;;;;;11.05;1.80;;;;;;;;;;7388559;19;20083;-74
2023/03/27 03:50:04;;;;;;;6.65;1.92;;;;;;;;;;7389867;19;20326;-73
2023/03/27 03:52:29;;;;;;;4.03;1.05;;;;;;;;;;7387680;19;20063;-73
2023/03/27 03:54:55;;;;;;;10.43;1.48;;;;;;;;;;7386316;19;20002;-74
2023/03/27 03:57:20;;;;;;;7.05;1.35;;;;;;;;;;7388612;19;20040;-72
2023/03/27 03:59:46;;;;;;;3.85;1.52;;;;;;;;;;7389706;19;20547;-74
2023/03/27 04:02:16;;;;;;;8.20;2.15;;;;;;;;;;7390824;19;20022;-73
2023/03/27 04:04:42;;;;;;;8.52;1.13;;;;;;;;;;7395955;19;20011;-73
2023/03/27 04:07:08;;;;;;;6.32;1.50;;;;;;;;;;7395511;19;19994;-73
2023/03/27 04:09:33;;;;;;;3.65;0.93;;;;;;;;;;7396964;19;20112;-73
2023/03/27 04:11:59;;;;;;;6.18;1.75;;;;;;;;;;7398597;19;20414;-73
2023/03/27 04:14:24;;;;;;;7.75;1.80;;;;;;;;;;7395819;19;20005;-74
2023/03/27 04:16:49;;;;;;;5.53;1.50;;;;;;;;;;7399589;19;19994;-73
2023/03/27 04:19:17;;;;;;;11.10;2.20;;;;;;;;;;7396865;19;19991;-74
2023/03/27 04:21:42;;;;;;;7.57;1.80;;;;;;;;;;7393660;19;20861;-74
2023/03/27 04:24:07;;;;;;;6.93;1.60;;;;;;;;;;7396174;19;19994;-73
2023/03/27 04:26:34;;;;;;;6.55;1.73;;;;;;;;;;7395783;19;20335;-74
2023/03/27 04:28:59;;;;;;;11.63;2.15;;;;;;;;;;7399140;19;19995;-74
2023/03/27 04:31:25;;;;;;;3.95;1.30;;;;;;;;;;7398730;19;20332;-74
2023/03/27 04:33:50;;;;;;;3.30;1.15;;;;;;;;;;7399378;19;20559;-74
2023/03/27 04:36:16;;;;;;;18.25;2.70;;;;;;;;;;7399523;19;20006;-72
2023/03/27 04:38:42;;;;;;;10.45;1.48;;;;;;;;;;7398291;19;20106;-74
2023/03/27 04:41:07;;;;;;;3.28;0.98;;;;;;;;;;7390734;19;20003;-72
2023/03/27 04:43:38;;;;;;;8.10;1.42;;;;;;;;;;7392782;19;20531;-73
2023/03/27 04:46:07;;;;;;;6.80;2.00;;;;;;;;;;7395018;19;20001;-72
2023/03/27 04:48:33;;;;;;;5.80;1.60;;;;;;;;;;7393415;19;19991;-74
2023/03/27 04:50:59;;;;;;;12.63;1.73;;;;;;;;;;7393058;19;20107;-73
2023/03/27 04:53:29;;;;;;;8.05;1.92;;;;;;;;;;7396649;19;19995;-74
2023/03/27 04:55:56;;;;;;;6.13;1.27;;;;;;;;;;7394081;19;20005;-73
2023/03/27 04:58:22;;;;;;;9.00;1.90;;;;;;;;;;7393600;19;20058;-73
2023/03/27 05:00:50;;;;;;;10.65;1.75;;;;;;;;;;7398455;19;19994;-72
2023/03/27 05:03:19;;;;;;;5.03;1.90;;;;;;;;;;7394579;19;20276;-72
2023/03/27 05:05:48;;;;;;;7.15;1.73;;;;;;;;;;7391778;19;19998;-72
2023/03/27 05:08:14;;;;;;;17.33;1.98;;;;;;;;;;7395242;19;20487;-73
2023/03/27 05:10:40;;;;;;;8.27;1.70;;;;;;;;;;7395391;19;20002;-72
2023/03/27 05:13:05;;;;;;;10.55;1.88;;;;;;;;;;7391710;19;20107;-72
2023/03/27 05:15:32;;;;;;;4.78;1.60;;;;;;;;;;7395225;19;20018;-73
2023/03/27 05:17:57;;;;;;;7.20;1.55;;;;;;;;;;7395129;19;19998;-73
2023/03/27 05:20:24;;;;;;;5.18;1.42;;;;;;;;;;7395556;19;20013;-72
2023/03/27 05:22:53;;;;;;;12.43;2.60;;;;;;;;;;7391484;19;20002;-72
2023/03/27 05:25:18;;;;;;;8.52;1.70;;;;;;;;;;7394592;19;20340;-72
2023/03/27 05:27:47;;;;;;;7.93;1.05;;;;;;;;;;7391345;19;20006;-72
2023/03/27 05:30:21;;;;;;;11.73;2.53;;;;;;;;;;7394943;19;19991;-72
2023/03/27 05:32:48;;;;;;;9.57;1.80;;;;;;;;;;7393653;19;20002;-74
2023/03/27 05:35:19;;;;;;;6.15;1.92;;;;;;;;;;7396356;19;20345;-72
2023/03/27 05:37:50;;;;;;;8.15;2.00;;;;;;;;;;7395616;19;20368;-72
2023/03/27 05:40:20;;;;;;;12.23;2.03;;;;;;;;;;7395860;19;19994;-72
2023/03/27 05:42:45;;;;;;;10.85;2.15;;;;;;;;;;7393177;19;20000;-72
2023/03/27 05:45:12;;;;;;;8.20;1.67;;;;;;;;;;7395846;19;20490;-72
2023/03/27 05:47:45;;;;;;;6.95;1.80;;;;;;;;;;7393504;19;20100;-72
2023/03/27 05:50:10;;;;;;;5.40;1.73;;;;;;;;;;7393182;19;19998;-73
2023/03/27 05:52:36;;;;;;;5.13;1.52;;;;;;;;;;7389936;19;20005;-73
2023/03/27 05:55:01;;;;;;;9.18;2.33;;;;;;;;;;7393590;19;19999;-74
2023/03/27 05:57:27;;;;;;;10.68;2.05;;;;;;;;;;7395777;19;20025;-72
2023/03/27 05:59:52;;;;;;;10.80;2.20;;;;;;;;;;7392953;19;20352;-73
2023/03/27 06:02:18;;;;;;;18.20;2.45;;;;;;;;;;7391449;19;20356;-72
2023/03/27 06:04:43;;;;;;;6.63;1.92;;;;;;;;;;7395499;19;20001;-74
2023/03/27 06:07:09;;;;;;;8.80;1.58;;;;;;;;;;7393441;19;20014;-72
2023/03/27 06:09:35;;;;;;;5.68;1.75;;;;;;;;;;7394277;19;19991;-73
2023/03/27 06:12:00;;;;;;;10.07;1.95;;;;;;;;;;7392710;19;20383;-72
2023/03/27 06:14:26;;;;;;;14.82;2.17;;;;;;;;;;7395024;19;19998;-74
2023/03/27 06:16:51;;;;;;;4.88;1.85;;;;;;;;;;7394501;19;20011;-74
2023/03/27 06:19:17;;;;;;;5.53;1.88;;;;;;;;;;7394568;19;19990;-74
2023/03/27 06:21:42;;;;;;;8.15;2.28;;;;;;;;;;7389366;19;20194;-73
2023/03/27 06:24:08;;;;;;;13.00;3.10;;;;;;;;;;7390400;19;20001;-72
2023/03/27 06:26:33;;;;;;;7.05;1.70;;;;;;;;;;7385584;19;20074;-74
2023/03/27 06:28:58;;;;;;;7.22;2.03;;;;;;;;;;7394195;19;20354;-73
2023/03/27 06:31:24;;;;;;;9.38;2.25;;;;;;;;;;7390201;19;20086;-73
2023/03/27 06:33:49;;;;;;;10.65;2.42;;;;;;;;;;7394697;19;20018;-74
2023/03/27 06:36:15;;;;;;;8.00;1.98;;;;;;;;;;7391462;19;20030;-74
2023/03/27 06:38:40;;;;;;;8.93;2.25;;;;;;;;;;7393786;19;20352;-73
2023/03/27 06:41:06;;;;;;;9.18;2.40;;;;;;;;;;7392309;19;20032;-74
2023/03/27 06:43:31;;;;;;;4.32;1.90;;;;;;;;;;7393726;19;20028;-74
2023/03/27 06:45:57;;;;;;;8.35;2.00;;;;;;;;;;7390685;19;20039;-74
2023/03/27 06:48:23;;;;;;;6.72;2.45;;;;;;;;;;7391111;19;20069;-75
2023/03/27 06:50:51;;;;;;;12.80;2.50;;;;;;;;;;7387039;19;20460;-75
2023/03/27 06:53:17;;;;;;;4.80;1.90;;;;;;;;;;7393138;19;20003;-74
2023/03/27 06:55:43;;;;;;;6.05;1.95;;;;;;;;;;7390612;19;20010;-73
2023/03/27 06:58:12;;;;;;;8.68;2.30;;;;;;;;;;7392774;19;20340;-74
2023/03/27 07:00:39;;;;;;;4.60;1.92;;;;;;;;;;7391803;19;20344;-75
2023/03/27 07:03:07;;;;;;;10.82;2.47;;;;;;;;;;7392108;19;20372;-75
2023/03/27 07:05:35;;;;;;;13.13;2.85;;;;;;;;;;7393538;19;20066;-73
2023/03/27 07:08:09;;;;;;;7.82;2.00;;;;;;;;;;7391116;19;19998;-74
2023/03/27 07:10:35;;;;;;;4.50;1.77;;;;;;;;;;7393273;19;19995;-74
2023/03/27 07:13:00;;;;;;;15.32;2.58;;;;;;;;;;7391628;19;20002;-73
2023/03/27 07:15:26;;;;;;;11.35;2.38;;;;;;;;;;7394078;19;20002;-75
2023/03/27 07:17:55;;;;;;;9.90;1.85;;;;;;;;;;7391640;19;20479;-75
2023/03/27 07:20:26;;;;;;;8.45;2.10;;;;;;;;;;7393339;19;20110;-74
2023/03/27 07:22:52;;;;;;;;;;;;;;;;;;7393876;19;19998;-74
2023/03/27 07:25:17;;;;;;;7.70;2.20;;;;;;;;;;7393234;19;19922;-74
2023/03/27 07:27:43;;;;;;;8.32;2.00;;;;;;;;;;7386906;19;20011;-71
2023/03/27 07:30:11;;;;;;;5.88;2.15;;;;;;;;;;7390077;19;20016;-70
2023/03/27 07:32:37;;;;;;;8.75;2.10;;;;;;;;;;7396732;19;20003;-70
2023/03/27 07:35:05;;;;;;;7.13;1.95;;;;;;;;;;7392777;19;20006;-70
2023/03/27 07:37:31;;;;;;;7.68;2.22;;;;;;;;;;7398981;19;20006;-70
2023/03/27 07:39:56;;;;;;;4.85;1.65;;;;;;;;;;7389386;19;20007;-70
2023/03/27 07:42:22;;;;;;;11.40;2.45;;;;;;;;;;7389650;19;20003;-71
2023/03/27 07:44:47;;;;;;;7.22;1.85;;;;;;;;;;7391151;19;20488;-70
2023/03/27 07:47:12;;;;;;;6.22;2.28;;;;;;;;;;7390785;19;20002;-70
2023/03/27 07:49:40;;;;;;;10.63;2.22;;;;;;;;;;7385711;19;20086;-71
2023/03/27 07:52:07;;;;;;;6.22;1.70;;;;;;;;;;7390632;19;20399;-71
2023/03/27 07:54:33;;;;;;;7.85;1.85;;;;;;;;;;7392000;19;19998;-71
2023/03/27 07:56:58;;;;;;;6.90;1.58;;;;;;;;;;7388533;19;20058;-71
2023/03/27 07:59:23;;;;;;;13.23;2.38;;;;;;;;;;7391473;19;19995;-71
2023/03/27 08:01:49;;;;;;;5.18;2.08;;;;;;;;;;7387592;19;20389;-72
2023/03/27 08:04:16;;;;;;;8.05;2.10;;;;;;;;;;7388730;19;19995;-71
2023/03/27 08:06:42;;;;;;;5.03;1.83;;;;;;;;;;7387438;19;20338;-71
2023/03/27 08:09:09;;;;;;;6.55;1.77;;;;;;;;;;7391516;19;20003;-71
2023/03/27 08:11:36;;;;;;;6.05;1.70;;;;;;;;;;7390735;19;20023;-71
2023/03/27 08:14:02;;;;;;;13.88;2.08;;;;;;;;;;7390261;19;20378;-72
2023/03/27 08:16:28;;;;;;;11.65;2.08;;;;;;;;;;7388588;19;19991;-72
2023/03/27 08:18:53;;;;;;;4.43;1.50;;;;;;;;;;7385968;19;20014;-72
2023/03/27 08:21:19;;;;;;;6.93;1.70;;;;;;;;;;7389082;19;19999;-71
2023/03/27 08:23:46;;;;;;;6.93;1.65;;;;;;;;;;7387831;19;20006;-72
2023/03/27 08:26:12;;;;;;;9.82;1.70;;;;;;;;;;7388309;19;20382;-72
2023/03/27 08:28:38;;;;;;;6.03;1.73;;;;;;;;;;7387593;19;20013;-72
2023/03/27 08:31:10;;;;;;;6.00;1.75;;;;;;;;;;7389472;19;20006;-71
2023/03/27 08:33:36;;;;;;;5.03;1.48;;;;;;;;;;7390671;19;20001;-71
2023/03/27 08:36:01;;;;;;;11.70;2.00;;;;;;;;;;7386453;19;20007;-71
2023/03/27 08:38:28;;;;;;;5.07;1.58;;;;;;;;;;7386718;19;20324;-71
2023/03/27 08:40:57;;;;;;;6.80;1.70;;;;;;;;;;7388805;19;20027;-71
2023/03/27 08:43:29;;;;;;;3.58;1.30;;;;;;;;;;7390153;19;20002;-72
2023/03/27 08:46:21;;;;;;;7.60;1.48;;;;;;;;;;7386435;19;20472;-73
2023/03/27 08:48:52;;;;;;;7.32;2.03;;;;;;;;;;7386626;19;19999;-65
2023/03/27 08:51:26;;;;;;;5.30;1.70;;;;;;;;;;7395248;19;20005;-65
2023/03/27 08:54:03;;;;;;;8.45;2.15;;;;;;;;;;7396004;19;20025;-65
2023/03/27 08:56:28;;;;;;;7.72;1.83;;;;;;;;;;7394414;19;20009;-71
2023/03/27 08:58:54;;;;;;;10.13;1.92;;;;;;;;;;7394877;19;19995;-71
2023/03/27 09:02:01;;;;;;;13.77;2.00;;;;;;;;;;7396154;19;20068;-71
2023/03/27 09:04:38;;;;;;;4.60;1.70;;;;;;;;;;7393437;19;20022;-72
2023/03/27 09:07:14;;;;;;;5.47;1.20;;;;;;;;;;7393565;19;20377;-71
2023/03/27 09:10:00;;;;;;;8.00;1.60;;;;;;;;;;7393490;19;20001;-70
2023/03/27 09:13:06;;;;;;;6.63;1.70;;;;;;;;;;7392477;19;19998;-71
2023/03/27 09:15:41;;;;;;;7.20;1.70;;;;;;;;;;7396837;19;19994;-71
2023/03/27 09:18:19;;;;;;;5.75;1.80;;;;;;;;;;7393837;19;20074;-71
2023/03/27 09:20:49;;;;;;;8.95;2.15;;;;;;;;;;7394877;19;19998;-71
2023/03/27 09:23:41;;;;;;;8.70;1.80;;;;;;;;;;7394639;19;20002;-70
2023/03/27 09:26:13;;;;;;;7.25;1.80;;;;;;;;;;7393337;19;20100;-72
2023/03/27 09:28:50;;;;;;;5.13;1.67;;;;;;;;;;7392596;19;20002;-70
2023/03/27 09:31:23;;;;;;;4.88;1.40;;;;;;;;;;7394987;19;20196;-70
2023/03/27 09:33:48;;;;;;;6.38;1.50;;;;;;;;;;7394264;19;19998;-70
2023/03/27 09:36:14;;;;;;;3.15;1.25;;;;;;;;;;7392548;19;19999;-71
2023/03/27 09:38:49;;;;;;;5.15;1.58;;;;;;;;;;7393020;19;20385;-71
2023/03/27 09:41:18;;;;;;;3.63;1.55;;;;;;;;;;7394373;19;20392;-71
2023/03/27 09:44:06;;;;;;;3.83;1.50;;;;;;;;;;7392404;19;19991;-71
2023/03/27 09:46:35;;;;;;;6.07;1.27;;;;;;;;;;7394682;19;20405;-71
2023/03/27 09:49:13;;;;;;;5.90;1.65;;;;;;;;;;7392743;19;20019;-70
2023/03/27 09:51:43;;;;;;;10.15;1.40;;;;;;;;;;7391946;19;19991;-70
2023/03/27 09:54:13;;;;;;;5.82;1.40;;;;;;;;;;7368294;19;20033;-69
2023/03/27 09:57:09;;;;;;;8.38;1.65;;;;;;;;;;7390292;19;20009;-70
2023/03/27 09:59:37;;;;;;;5.43;2.05;;;;;;;;;;7394763;19;20014;-70
2023/03/27 10:02:15;;;;;;;3.85;1.40;;;;;;;;;;7393253;19;20060;-70
2023/03/27 10:05:10;;;;;;;8.05;1.65;;;;;;;;;;7392880;19;20434;-71
2023/03/27 10:07:38;;;;;;;6.47;1.55;;;;;;;;;;7391996;19;19994;-70
2023/03/27 10:10:12;;;;;;;3.47;1.27;;;;;;;;;;7391955;19;20002;-70
2023/03/27 10:12:39;;;;;;;3.38;1.45;;;;;;;;;;7392106;19;19999;-70
2023/03/27 10:15:23;;;;;;;5.78;1.70;;;;;;;;;;7393151;19;20333;-70
2023/03/27 10:17:48;;;;;;;3.33;1.73;;;;;;;;;;7389598;19;20394;-71
2023/03/27 10:20:18;;;;;;;5.63;1.67;;;;;;;;;;7390713;19;20275;-71
2023/03/27 10:23:08;;;;;;;4.40;1.53;;;;;;;;;;7390527;19;20764;-71
2023/03/27 10:25:44;;;;;;;4.93;1.92;;;;;;;;;;7394042;19;19995;-71
2023/03/27 10:28:26;;;;;;;4.03;1.63;;;;;;;;;;7389186;19;19995;-71
2023/03/27 10:31:00;;;;;;;3.20;1.20;;;;;;;;;;7392565;19;20005;-71
2023/03/27 10:33:34;;;;;;;3.58;1.42;;;;;;;;;;7393417;19;20066;-71
2023/03/27 10:35:59;;;;;;;3.03;1.00;;;;;;;;;;7389538;19;20448;-71
2023/03/27 10:38:26;;;;;;;2.80;1.50;;;;;;;;;;7389652;19;20002;-71
2023/03/27 10:40:53;;;;;;;1.95;1.50;;;;;;;;;;7390405;19;20006;-72
2023/03/27 10:43:35;;;;;;;4.22;1.58;;;;;;;;;;7392881;19;20288;-69
2023/03/27 10:46:04;;;;;;;2.95;1.60;;;;;;;;;;7390486;19;19995;-70
2023/03/27 10:48:54;;;;;;;3.28;1.42;;;;;;;;;;7389417;19;20005;-72
2023/03/27 10:51:24;;;;;;;3.08;2.15;;;;;;;;;;7393110;19;20003;-71
2023/03/27 10:53:54;;;;;;;3.10;1.30;;;;;;;;;;7389337;19;19999;-69
2023/03/27 10:56:32;;;;;;;4.63;1.40;;;;;;;;;;7386373;19;20030;-70
2023/03/27 10:59:16;;;;;;;2.13;1.30;;;;;;;;;;7385587;19;20001;-70
2023/03/27 11:01:52;;;;;;;4.13;1.40;;;;;;;;;;7384304;19;20527;-70
2023/03/27 11:04:40;;;;;;;6.65;1.55;;;;;;;;;;7385588;19;19999;-70
2023/03/27 11:07:14;;;;;;;4.75;1.67;;;;;;;;;;7386439;19;20032;-70
2023/03/27 11:09:51;;;;;;;4.72;1.40;;;;;;;;;;7388389;19;20738;-71
2023/03/27 11:12:20;;;;;;;5.90;1.98;;;;;;;;;;7388396;19;20009;-71
2023/03/27 11:15:00;;;;;;;4.35;1.60;;;;;;;;;;7390799;19;20475;-71
2023/03/27 11:17:37;;;;;;;8.90;2.25;;;;;;;;;;7391964;19;20002;-71
2023/03/27 11:20:10;;;;;;;3.85;1.60;;;;;;;;;;7389572;19;19999;-70
2023/03/27 11:22:50;;;;;;;5.68;1.80;;;;;;;;;;7391128;19;20006;-70
2023/03/27 11:25:24;;;;;;;9.40;2.35;;;;;;;;;;7391498;19;20649;-71
2023/03/27 11:28:02;;;;;;;2.58;1.60;;;;;;;;;;7387495;19;20002;-71
2023/03/27 11:30:35;;;;;;;3.55;1.80;;;;;;;;;;7390380;19;19990;-69
2023/03/27 11:33:31;;;;;;;1.77;1.25;;;;;;;;;;7391845;19;19999;-71
2023/03/27 11:36:36;;;;;;;1.65;1.23;;;;;;;;;;7389298;19;20003;-70
2023/03/27 11:39:14;;;;;;;5.10;1.77;;;;;;;;;;7389201;19;20005;-70
2023/03/27 11:41:41;;;;;;;4.35;1.40;;;;;;;;;;7387682;19;20006;-69
2023/03/27 11:44:09;;;;;;;2.95;1.52;;;;;;;;;;7387675;19;19995;-69
2023/03/27 11:46:53;;;;;;;1.67;1.38;;;;;;;;;;7390422;19;20464;-68
2023/03/27 11:49:43;;;;;;;4.38;1.45;;;;;;;;;;7391121;19;20058;-68
2023/03/27 11:52:15;;;;;;;4.95;1.70;;;;;;;;;;7388418;19;20484;-68
2023/03/27 11:55:05;;;;;;;6.65;1.92;;;;;;;;;;7390140;19;20015;-69
2023/03/27 11:57:43;;;;;;;10.75;2.03;;;;;;;;;;7390248;19;19999;-69
2023/03/27 12:00:15;;;;;;;3.55;1.63;;;;;;;;;;7388806;19;19999;-70
2023/03/27 12:02:58;;;;;;;2.85;1.60;;;;;;;;;;7390477;19;20434;-70
2023/03/27 12:05:26;;;;;;;2.95;1.60;;;;;;;;;;7391458;19;20061;-70
2023/03/27 12:08:07;;;;;;;3.25;1.80;;;;;;;;;;7388098;19;20069;-69
2023/03/27 12:10:35;;;;;;;4.75;1.90;;;;;;;;;;7388770;19;20017;-69
2023/03/27 12:13:28;;;;;;;5.43;2.03;;;;;;;;;;7391037;19;19995;-69
2023/03/27 12:16:13;;;;;;;5.05;1.90;;;;;;;;;;7389668;19;19991;-70
2023/03/27 12:18:54;;;;;;;6.63;2.15;;;;;;;;;;7388016;19;20002;-69
2023/03/27 12:21:42;;;;;;;3.38;1.65;;;;;;;;;;7388614;19;20374;-69
2023/03/27 12:24:29;;;;;;;5.35;1.65;;;;;;;;;;7390587;19;19991;-68
2023/03/27 12:27:11;;;;;;;3.00;1.50;;;;;;;;;;7396262;19;20703;-68
2023/03/27 12:29:52;;;;;;;1.38;1.02;;;;;;;;;;7389851;19;20093;-68
2023/03/27 12:32:24;;;;;;;1.27;1.17;;;;;;;;;;7394776;19;20009;-68
2023/03/27 12:34:59;;;;;;;1.80;1.20;;;;;;;;;;7396565;19;20111;-68
2023/03/27 12:37:33;;;;;;;1.73;1.10;;;;;;;;;;7341018;19;1005113;-68
2023/03/27 12:39:59;;;;;;;1.75;1.20;;;;;;;;;;7396344;19;20058;-69
2023/03/27 12:43:00;;;;;;;3.30;1.30;;;;;;;;;;7395541;19;20024;-68
2023/03/27 12:45:28;;;;;;;4.23;1.20;;;;;;;;;;7390884;19;20006;-68
2023/03/27 12:48:08;;;;;;;2.25;1.27;;;;;;;;;;7391074;19;20271;-70
2023/03/27 12:50:55;;;;;;;2.72;1.40;;;;;;;;;;7383897;19;19998;-69
2023/03/27 12:53:26;;;;;;;3.85;1.40;;;;;;;;;;7393859;19;20002;-68
2023/03/27 12:56:18;;;;;;;1.75;1.20;;;;;;;;;;7393180;19;20096;-68
2023/03/27 12:58:45;;;;;;;1.20;1.10;;;;;;;;;;7390333;19;20020;-69
2023/03/27 13:01:22;;;;;;;1.20;1.10;;;;;;;;;;7395463;19;19995;-69
2023/03/27 13:03:53;;;;;;;2.03;1.23;;;;;;;;;;7396468;19;19990;-68
2023/03/27 13:06:25;;;;;;;2.42;1.42;;;;;;;;;;7388993;19;20463;-68
2023/03/27 13:08:58;;;;;;;2.08;1.40;;;;;;;;;;7393217;19;20003;-69
2023/03/27 13:11:57;;;;;;;2.40;1.20;;;;;;;;;;7395837;19;20277;-69
2023/03/27 13:14:42;;;;;;;1.75;1.20;;;;;;;;;;7395163;19;19997;-69
2023/03/27 13:17:23;;;;;;;3.28;1.45;;;;;;;;;;7394932;19;20034;-70
2023/03/27 13:19:57;;;;;;;4.70;1.80;;;;;;;;;;7394593;19;20018;-69
2023/03/27 13:22:31;;;;;;;3.50;1.30;;;;;;;;;;7393071;19;19994;-68
2023/03/27 13:25:16;;;;;;;1.33;1.08;;;;;;;;;;7395945;19;19990;-69
2023/03/27 13:28:09;;;;;;;3.15;1.70;;;;;;;;;;7393372;19;20042;-70
2023/03/27 13:30:43;;;;;;;3.50;1.40;;;;;;;;;;7394030;19;20004;-69
2023/03/27 13:33:09;;;;;;;4.82;1.42;;;;;;;;;;7395178;19;20482;-69
2023/03/27 13:35:57;;;;;;;3.05;1.38;;;;;;;;;;7389835;19;20436;-69
2023/03/27 13:38:52;;;;;;;2.45;1.40;;;;;;;;;;7389431;19;20014;-69
2023/03/27 13:41:42;;;;;;;5.13;1.75;;;;;;;;;;7393794;19;20004;-70
2023/03/27 13:44:27;;;;;;;2.35;1.20;;;;;;;;;;7392701;19;20072;-69
2023/03/27 13:47:06;;;;;;;3.03;1.50;;;;;;;;;;7394827;19;19990;-70
2023/03/27 13:49:49;;;;;;;3.97;1.50;;;;;;;;;;7395071;19;20380;-69
2023/03/27 13:52:40;;;;;;;5.20;1.55;;;;;;;;;;7392213;19;19990;-68
2023/03/27 13:55:11;;;;;;;4.80;1.60;;;;;;;;;;7394807;19;20341;-69
2023/03/27 13:58:06;;;;;;;2.42;1.02;;;;;;;;;;7389273;19;19999;-68
2023/03/27 14:01:01;;;;;;;3.58;1.55;;;;;;;;;;7392853;19;20006;-68
2023/03/27 14:03:56;;;;;;;6.03;1.55;;;;;;;;;;7395037;19;19995;-69
2023/03/27 14:06:41;;;;;;;2.67;1.58;;;;;;;;;;7391421;19;20007;-69
2023/03/27 14:09:07;;;;;;;2.80;1.20;;;;;;;;;;7394120;19;20006;-69
2023/03/27 14:12:03;;;;;;;4.05;1.52;;;;;;;;;;7393780;19;20014;-69
2023/03/27 14:14:50;;;;;;;4.07;1.33;;;;;;;;;;7394250;19;19991;-69
2023/03/27 14:17:40;;;;;;;8.57;1.80;;;;;;;;;;7393169;19;20323;-69
2023/03/27 14:20:18;;;;;;;5.63;1.88;;;;;;;;;;7394189;19;20005;-69
2023/03/27 14:22:49;;;;;;;5.47;2.00;;;;;;;;;;7393351;19;19999;-70
2023/03/27 14:25:16;;;;;;;;;;;;;;;;;;7394490;19;20002;-71
2023/03/27 14:27:44;;;;;;;5.07;1.70;;;;;;;;;;7389378;19;19918;-70
2023/03/27 14:30:44;;;;;;;3.85;1.60;;;;;;;;;;7389968;19;20114;-70
2023/03/27 14:33:18;;;;;;;3.58;1.75;;;;;;;;;;7394184;19;20071;-70
2023/03/27 14:35:44;;;;;;;2.05;1.38;;;;;;;;;;7388853;19;20077;-70
2023/03/27 14:38:33;;;;;;;5.07;1.70;;;;;;;;;;7389746;19;20003;-70
2023/03/27 14:41:04;;;;;;;6.75;1.70;;;;;;;;;;7390178;19;20014;-69
2023/03/27 14:43:30;;;;;;;11.48;1.77;;;;;;;;;;7392650;19;20539;-71
2023/03/27 14:46:00;;;;;;;3.00;1.55;;;;;;;;;;7388837;19;20151;-69
2023/03/27 14:48:38;;;;;;;4.20;1.40;;;;;;;;;;7387113;19;19998;-71
2023/03/27 14:51:09;;;;;;;2.15;1.38;;;;;;;;;;7390836;19;20005;-70
2023/03/27 14:53:43;;;;;;;5.47;1.48;;;;;;;;;;7391014;19;19998;-69
2023/03/27 14:56:24;;;;;;;5.00;1.70;;;;;;;;;;7392125;19;20345;-70
2023/03/27 14:58:50;;;;;;;;;;;;;;;;;;7391483;19;20036;-69
2023/03/27 15:01:16;;;;;;;4.63;1.55;;;;;;;;;;7391343;19;19915;-69
2023/03/27 15:03:45;;;;;;;4.90;1.42;;;;;;;;;;7387930;19;20004;-70
2023/03/27 15:06:25;;;;;;;5.53;1.88;;;;;;;;;;7391671;19;19983;-69
2023/03/27 15:08:54;;;;;;;4.65;1.95;;;;;;;;;;7390469;19;20078;-70
2023/03/27 15:11:22;;;;;;;4.00;1.80;;;;;;;;;;7391424;19;20458;-69
2023/03/27 15:13:48;;;;;;;3.75;1.67;;;;;;;;;;7391233;19;20391;-70
2023/03/27 15:16:19;;;;;;;4.30;1.60;;;;;;;;;;7389669;19;19991;-70